sensor_id;sensor_type;location;lat;lon;timestamp;pressure;altitude;pressure_sealevel;temperature;humidity
53041;BME280;39326;42.650;23.248;2023-01-30T00:00:20;92733.41;;;-2.67;81.72
53041;BME280;39326;42.650;23.248;2023-01-30T00:02:46;92735.50;;;-2.69;81.80
53041;BME280;39326;42.650;23.248;2023-01-30T00:05:11;92726.22;;;-2.61;81.80
53041;BME280;39326;42.650;23.248;2023-01-30T00:07:36;92727.56;;;-2.86;82.32
53041;BME280;39326;42.650;23.248;2023-01-30T00:10:02;92727.31;;;-2.76;82.23
53041;BME280;39326;42.650;23.248;2023-01-30T00:12:27;92721.53;;;-2.73;82.44
53041;BME280;39326;42.650;23.248;2023-01-30T00:14:53;92725.78;;;-2.77;82.02
53041;BME280;39326;42.650;23.248;2023-01-30T00:17:18;92719.22;;;-2.74;82.00
53041;BME280;39326;42.650;23.248;2023-01-30T00:19:44;92723.00;;;-2.80;82.11
53041;BME280;39326;42.650;23.248;2023-01-30T00:22:09;92726.38;;;-2.80;82.29
53041;BME280;39326;42.650;23.248;2023-01-30T00:24:34;92726.84;;;-2.78;81.39
53041;BME280;39326;42.650;23.248;2023-01-30T00:27:00;92726.19;;;-2.83;81.53
53041;BME280;39326;42.650;23.248;2023-01-30T00:29:25;92720.66;;;-3.04;81.05
53041;BME280;39326;42.650;23.248;2023-01-30T00:31:50;92723.63;;;-2.97;81.25
53041;BME280;39326;42.650;23.248;2023-01-30T00:34:16;92723.63;;;-2.97;80.21
53041;BME280;39326;42.650;23.248;2023-01-30T00:36:41;92724.47;;;-2.88;80.51
53041;BME280;39326;42.650;23.248;2023-01-30T00:39:07;92719.19;;;-2.97;80.72
53041;BME280;39326;42.650;23.248;2023-01-30T00:41:32;92721.78;;;-2.97;81.52
53041;BME280;39326;42.650;23.248;2023-01-30T00:44:16;92696.69;;;-3.06;80.66
53041;BME280;39326;42.650;23.248;2023-01-30T00:47:00;92710.59;;;-2.97;80.79
53041;BME280;39326;42.650;23.248;2023-01-30T00:49:34;92707.22;;;-2.98;80.56
53041;BME280;39326;42.650;23.248;2023-01-30T00:52:00;92697.84;;;-3.12;80.65
53041;BME280;39326;42.650;23.248;2023-01-30T00:54:25;92698.66;;;-3.12;80.93
53041;BME280;39326;42.650;23.248;2023-01-30T00:56:51;92691.09;;;-3.13;81.26
53041;BME280;39326;42.650;23.248;2023-01-30T00:59:16;92690.44;;;-3.05;81.09
53041;BME280;39326;42.650;23.248;2023-01-30T01:01:42;92687.22;;;-3.02;80.33
53041;BME280;39326;42.650;23.248;2023-01-30T01:04:08;92693.72;;;-3.13;80.18
53041;BME280;39326;42.650;23.248;2023-01-30T01:06:35;92687.63;;;-3.09;80.19
53041;BME280;39326;42.650;23.248;2023-01-30T01:09:01;92698.88;;;-2.86;79.73
53041;BME280;39326;42.650;23.248;2023-01-30T01:11:26;92699.34;;;-2.84;79.70
53041;BME280;39326;42.650;23.248;2023-01-30T01:13:54;92698.97;;;-2.91;80.32
53041;BME280;39326;42.650;23.248;2023-01-30T01:16:20;92692.38;;;-2.89;80.09
53041;BME280;39326;42.650;23.248;2023-01-30T01:18:45;92691.50;;;-2.84;79.73
53041;BME280;39326;42.650;23.248;2023-01-30T01:21:11;92685.63;;;-2.90;80.05
53041;BME280;39326;42.650;23.248;2023-01-30T01:23:37;92689.63;;;-2.92;79.70
53041;BME280;39326;42.650;23.248;2023-01-30T01:26:03;92683.91;;;-2.94;80.31
53041;BME280;39326;42.650;23.248;2023-01-30T01:28:28;92687.66;;;-2.86;80.79
53041;BME280;39326;42.650;23.248;2023-01-30T01:30:53;92675.25;;;-2.81;80.43
53041;BME280;39326;42.650;23.248;2023-01-30T01:33:19;92685.75;;;-2.95;80.88
53041;BME280;39326;42.650;23.248;2023-01-30T01:35:45;92678.53;;;-2.98;80.46
53041;BME280;39326;42.650;23.248;2023-01-30T01:38:12;92682.09;;;-3.07;81.17
53041;BME280;39326;42.650;23.248;2023-01-30T01:40:38;92668.44;;;-2.91;80.34
53041;BME280;39326;42.650;23.248;2023-01-30T01:43:23;92669.25;;;-3.04;80.72
53041;BME280;39326;42.650;23.248;2023-01-30T01:45:56;92668.72;;;-3.14;80.52
53041;BME280;39326;42.650;23.248;2023-01-30T01:48:40;92677.78;;;-3.12;80.94
53041;BME280;39326;42.650;23.248;2023-01-30T01:53:50;92678.81;;;-2.99;80.19
53041;BME280;39326;42.650;23.248;2023-01-30T01:56:19;92679.44;;;-3.16;80.99
53041;BME280;39326;42.650;23.248;2023-01-30T01:58:49;92681.25;;;-3.03;80.21
53041;BME280;39326;42.650;23.248;2023-01-30T02:01:17;92681.19;;;-3.11;81.04
53041;BME280;39326;42.650;23.248;2023-01-30T02:03:44;92674.72;;;-2.92;79.92
53041;BME280;39326;42.650;23.248;2023-01-30T02:06:13;92679.22;;;-2.83;79.61
53041;BME280;39326;42.650;23.248;2023-01-30T02:08:44;92677.16;;;-2.73;79.27
53041;BME280;39326;42.650;23.248;2023-01-30T02:11:26;92676.00;;;-2.67;78.92
53041;BME280;39326;42.650;23.248;2023-01-30T02:13:54;92680.59;;;-2.86;78.90
53041;BME280;39326;42.650;23.248;2023-01-30T02:16:21;92670.63;;;-2.84;79.87
53041;BME280;39326;42.650;23.248;2023-01-30T02:18:47;92673.88;;;-3.01;79.55
53041;BME280;39326;42.650;23.248;2023-01-30T02:31:56;92673.50;;;-3.30;80.71
53041;BME280;39326;42.650;23.248;2023-01-30T02:34:41;92661.50;;;-3.31;80.35
53041;BME280;39326;42.650;23.248;2023-01-30T02:40:32;92668.38;;;-3.35;81.41
53041;BME280;39326;42.650;23.248;2023-01-30T02:46:04;92668.34;;;-3.22;80.21
53041;BME280;39326;42.650;23.248;2023-01-30T02:50:54;92669.63;;;-3.33;80.93
53041;BME280;39326;42.650;23.248;2023-01-30T02:53:21;92664.41;;;-3.33;81.29
53041;BME280;39326;42.650;23.248;2023-01-30T02:55:47;92663.56;;;-3.42;81.48
53041;BME280;39326;42.650;23.248;2023-01-30T02:58:13;92664.59;;;-3.29;81.47
53041;BME280;39326;42.650;23.248;2023-01-30T03:11:48;92668.00;;;-3.56;80.79
53041;BME280;39326;42.650;23.248;2023-01-30T03:14:27;92667.50;;;-3.45;81.17
53041;BME280;39326;42.650;23.248;2023-01-30T03:16:56;92658.25;;;-3.51;81.01
53041;BME280;39326;42.650;23.248;2023-01-30T03:19:23;92657.50;;;-3.51;80.83
53041;BME280;39326;42.650;23.248;2023-01-30T03:21:50;92653.81;;;-3.50;80.74
53041;BME280;39326;42.650;23.248;2023-01-30T03:24:16;92649.66;;;-3.51;81.41
53041;BME280;39326;42.650;23.248;2023-01-30T03:26:54;92645.03;;;-3.40;80.66
53041;BME280;39326;42.650;23.248;2023-01-30T03:29:20;92637.72;;;-3.52;81.50
53041;BME280;39326;42.650;23.248;2023-01-30T03:31:46;92635.41;;;-3.54;81.79
53041;BME280;39326;42.650;23.248;2023-01-30T03:34:11;92630.44;;;-3.41;81.29
53041;BME280;39326;42.650;23.248;2023-01-30T03:36:37;92627.75;;;-3.36;81.19
53041;BME280;39326;42.650;23.248;2023-01-30T03:39:02;92626.47;;;-3.39;81.34
53041;BME280;39326;42.650;23.248;2023-01-30T03:41:28;92629.03;;;-3.48;80.56
53041;BME280;39326;42.650;23.248;2023-01-30T03:43:53;92622.66;;;-3.55;81.37
53041;BME280;39326;42.650;23.248;2023-01-30T03:46:19;92616.13;;;-3.66;81.73
53041;BME280;39326;42.650;23.248;2023-01-30T03:48:44;92625.84;;;-3.58;80.89
53041;BME280;39326;42.650;23.248;2023-01-30T03:51:09;92621.91;;;-3.56;81.14
53041;BME280;39326;42.650;23.248;2023-01-30T03:53:35;92621.41;;;-3.58;81.36
53041;BME280;39326;42.650;23.248;2023-01-30T03:56:00;92616.94;;;-3.44;80.89
53041;BME280;39326;42.650;23.248;2023-01-30T03:58:25;92620.44;;;-3.48;80.57
53041;BME280;39326;42.650;23.248;2023-01-30T04:00:51;92614.63;;;-3.45;80.56
53041;BME280;39326;42.650;23.248;2023-01-30T04:03:16;92612.63;;;-3.48;80.59
53041;BME280;39326;42.650;23.248;2023-01-30T04:05:42;92611.34;;;-3.37;80.03
53041;BME280;39326;42.650;23.248;2023-01-30T04:08:08;92612.56;;;-3.34;80.65
53041;BME280;39326;42.650;23.248;2023-01-30T04:10:34;92614.06;;;-3.20;79.37
53041;BME280;39326;42.650;23.248;2023-01-30T04:12:59;92616.91;;;-3.30;79.61
53041;BME280;39326;42.650;23.248;2023-01-30T04:15:25;92611.41;;;-3.28;80.10
53041;BME280;39326;42.650;23.248;2023-01-30T04:17:50;92610.94;;;-3.44;80.27
53041;BME280;39326;42.650;23.248;2023-01-30T04:20:15;92613.44;;;-3.39;80.02
53041;BME280;39326;42.650;23.248;2023-01-30T04:22:41;92615.38;;;-3.45;80.11
53041;BME280;39326;42.650;23.248;2023-01-30T04:25:06;92618.31;;;-3.60;79.83
53041;BME280;39326;42.650;23.248;2023-01-30T04:27:32;92617.97;;;-3.67;81.30
53041;BME280;39326;42.650;23.248;2023-01-30T04:29:57;92619.16;;;-3.51;80.80
53041;BME280;39326;42.650;23.248;2023-01-30T04:32:25;92617.53;;;-3.47;80.58
53041;BME280;39326;42.650;23.248;2023-01-30T04:34:50;92616.38;;;-3.54;79.87
53041;BME280;39326;42.650;23.248;2023-01-30T04:37:16;92617.31;;;-3.50;80.67
53041;BME280;39326;42.650;23.248;2023-01-30T04:39:41;92619.28;;;-3.56;81.12
53041;BME280;39326;42.650;23.248;2023-01-30T04:42:07;92618.84;;;-3.35;80.59
53041;BME280;39326;42.650;23.248;2023-01-30T04:44:32;92608.59;;;-3.32;79.80
53041;BME280;39326;42.650;23.248;2023-01-30T04:46:57;92611.41;;;-3.28;79.90
53041;BME280;39326;42.650;23.248;2023-01-30T04:49:23;92603.28;;;-3.27;80.27
53041;BME280;39326;42.650;23.248;2023-01-30T04:51:48;92610.31;;;-3.27;79.83
53041;BME280;39326;42.650;23.248;2023-01-30T04:54:14;92603.09;;;-3.30;80.19
53041;BME280;39326;42.650;23.248;2023-01-30T04:56:39;92601.13;;;-3.25;80.16
53041;BME280;39326;42.650;23.248;2023-01-30T04:59:04;92594.50;;;-3.31;79.89
53041;BME280;39326;42.650;23.248;2023-01-30T05:01:32;92588.78;;;-3.55;80.67
53041;BME280;39326;42.650;23.248;2023-01-30T05:03:59;92583.53;;;-3.78;81.27
53041;BME280;39326;42.650;23.248;2023-01-30T05:06:24;92590.16;;;-3.72;82.07
53041;BME280;39326;42.650;23.248;2023-01-30T05:08:52;92592.06;;;-3.63;81.21
53041;BME280;39326;42.650;23.248;2023-01-30T05:11:18;92588.97;;;-3.52;80.44
53041;BME280;39326;42.650;23.248;2023-01-30T05:13:44;92589.94;;;-3.48;81.20
53041;BME280;39326;42.650;23.248;2023-01-30T05:16:10;92588.66;;;-3.50;81.29
53041;BME280;39326;42.650;23.248;2023-01-30T05:18:36;92590.03;;;-3.53;81.32
53041;BME280;39326;42.650;23.248;2023-01-30T05:21:17;92588.59;;;-3.59;80.81
53041;BME280;39326;42.650;23.248;2023-01-30T05:23:43;92592.75;;;-3.58;80.37
53041;BME280;39326;42.650;23.248;2023-01-30T05:26:08;92601.25;;;-3.66;80.23
53041;BME280;39326;42.650;23.248;2023-01-30T05:28:35;92591.81;;;-3.76;80.79
53041;BME280;39326;42.650;23.248;2023-01-30T05:31:04;92601.75;;;-3.78;81.24
53041;BME280;39326;42.650;23.248;2023-01-30T05:33:30;92609.34;;;-3.54;80.63
53041;BME280;39326;42.650;23.248;2023-01-30T05:35:56;92609.84;;;-3.65;80.86
53041;BME280;39326;42.650;23.248;2023-01-30T05:38:23;92610.91;;;-3.66;80.04
53041;BME280;39326;42.650;23.248;2023-01-30T05:40:59;92599.47;;;-3.79;81.73
53041;BME280;39326;42.650;23.248;2023-01-30T05:43:25;92599.78;;;-3.58;80.95
53041;BME280;39326;42.650;23.248;2023-01-30T05:45:52;92603.94;;;-3.57;80.73
53041;BME280;39326;42.650;23.248;2023-01-30T05:48:17;92603.72;;;-3.47;80.38
53041;BME280;39326;42.650;23.248;2023-01-30T05:50:44;92604.50;;;-3.47;81.06
53041;BME280;39326;42.650;23.248;2023-01-30T05:53:09;92606.78;;;-3.67;80.75
53041;BME280;39326;42.650;23.248;2023-01-30T05:55:34;92609.06;;;-3.66;81.18
53041;BME280;39326;42.650;23.248;2023-01-30T05:58:00;92610.03;;;-3.62;81.92
53041;BME280;39326;42.650;23.248;2023-01-30T06:00:25;92615.47;;;-3.36;81.23
53041;BME280;39326;42.650;23.248;2023-01-30T06:02:51;92613.09;;;-3.46;81.47
53041;BME280;39326;42.650;23.248;2023-01-30T06:05:16;92620.03;;;-3.41;81.41
53041;BME280;39326;42.650;23.248;2023-01-30T06:07:41;92612.13;;;-3.50;80.71
53041;BME280;39326;42.650;23.248;2023-01-30T06:10:07;92614.16;;;-3.47;82.10
53041;BME280;39326;42.650;23.248;2023-01-30T06:12:33;92610.47;;;-3.46;81.35
53041;BME280;39326;42.650;23.248;2023-01-30T06:14:58;92614.09;;;-3.56;81.35
53041;BME280;39326;42.650;23.248;2023-01-30T06:17:24;92612.13;;;-3.50;81.34
53041;BME280;39326;42.650;23.248;2023-01-30T06:19:49;92611.34;;;-3.51;81.29
53041;BME280;39326;42.650;23.248;2023-01-30T06:22:15;92603.84;;;-3.52;81.92
53041;BME280;39326;42.650;23.248;2023-01-30T06:24:40;92607.31;;;-3.57;82.13
53041;BME280;39326;42.650;23.248;2023-01-30T06:27:06;92602.41;;;-3.58;81.81
53041;BME280;39326;42.650;23.248;2023-01-30T06:29:31;92592.28;;;-3.60;82.05
53041;BME280;39326;42.650;23.248;2023-01-30T06:31:56;92602.09;;;-3.57;81.32
53041;BME280;39326;42.650;23.248;2023-01-30T06:34:22;92605.00;;;-3.58;81.58
53041;BME280;39326;42.650;23.248;2023-01-30T06:36:47;92602.88;;;-3.56;82.56
53041;BME280;39326;42.650;23.248;2023-01-30T06:39:13;92609.34;;;-3.54;81.76
53041;BME280;39326;42.650;23.248;2023-01-30T06:41:38;92598.72;;;-3.57;82.11
53041;BME280;39326;42.650;23.248;2023-01-30T06:44:03;92599.38;;;-3.52;81.80
53041;BME280;39326;42.650;23.248;2023-01-30T06:46:29;92607.19;;;-3.52;81.92
53041;BME280;39326;42.650;23.248;2023-01-30T06:48:54;92606.75;;;-3.54;82.00
53041;BME280;39326;42.650;23.248;2023-01-30T06:51:20;92610.88;;;-3.53;81.44
53041;BME280;39326;42.650;23.248;2023-01-30T06:53:45;92608.38;;;-3.58;81.51
53041;BME280;39326;42.650;23.248;2023-01-30T06:56:11;92610.31;;;-3.63;82.75
53041;BME280;39326;42.650;23.248;2023-01-30T06:58:36;92610.81;;;-3.61;82.35
53041;BME280;39326;42.650;23.248;2023-01-30T07:01:02;92613.81;;;-3.68;82.02
53041;BME280;39326;42.650;23.248;2023-01-30T07:03:27;92620.00;;;-3.78;83.65
53041;BME280;39326;42.650;23.248;2023-01-30T07:05:53;92608.03;;;-3.79;83.65
53041;BME280;39326;42.650;23.248;2023-01-30T07:08:18;92616.56;;;-3.51;82.89
53041;BME280;39326;42.650;23.248;2023-01-30T07:10:44;92616.28;;;-3.49;82.64
53041;BME280;39326;42.650;23.248;2023-01-30T07:13:10;92620.63;;;-3.58;82.51
53041;BME280;39326;42.650;23.248;2023-01-30T07:15:36;92620.44;;;-3.48;82.43
53041;BME280;39326;42.650;23.248;2023-01-30T07:18:02;92629.31;;;-3.49;81.78
53041;BME280;39326;42.650;23.248;2023-01-30T07:20:27;92629.06;;;-3.61;82.47
53041;BME280;39326;42.650;23.248;2023-01-30T07:22:55;92626.59;;;-3.44;82.54
53041;BME280;39326;42.650;23.248;2023-01-30T07:25:23;92630.84;;;-3.48;82.72
53041;BME280;39326;42.650;23.248;2023-01-30T07:27:50;92621.91;;;-3.56;82.50
53041;BME280;39326;42.650;23.248;2023-01-30T07:30:15;92626.84;;;-3.32;82.51
53041;BME280;39326;42.650;23.248;2023-01-30T07:32:41;92629.19;;;-3.44;81.88
53041;BME280;39326;42.650;23.248;2023-01-30T07:35:07;92642.13;;;-3.39;81.72
53041;BME280;39326;42.650;23.248;2023-01-30T07:37:32;92640.66;;;-3.31;82.30
53041;BME280;39326;42.650;23.248;2023-01-30T07:39:57;92649.91;;;-3.25;81.28
53041;BME280;39326;42.650;23.248;2023-01-30T07:42:23;92647.28;;;-3.25;81.80
53041;BME280;39326;42.650;23.248;2023-01-30T07:44:48;92633.81;;;-3.41;81.37
53041;BME280;39326;42.650;23.248;2023-01-30T07:47:14;92641.81;;;-3.24;81.21
53041;BME280;39326;42.650;23.248;2023-01-30T07:49:39;92648.34;;;-3.26;81.02
53041;BME280;39326;42.650;23.248;2023-01-30T07:52:04;92641.50;;;-3.22;80.48
53041;BME280;39326;42.650;23.248;2023-01-30T07:54:30;92646.25;;;-3.24;79.93
53041;BME280;39326;42.650;23.248;2023-01-30T07:56:55;92641.91;;;-3.29;80.53
53041;BME280;39326;42.650;23.248;2023-01-30T07:59:22;92632.25;;;-3.28;80.20
53041;BME280;39326;42.650;23.248;2023-01-30T08:01:47;92626.47;;;-3.39;79.31
53041;BME280;39326;42.650;23.248;2023-01-30T08:04:13;92619.31;;;-3.33;79.60
53041;BME280;39326;42.650;23.248;2023-01-30T08:06:38;92613.22;;;-3.29;79.81
53041;BME280;39326;42.650;23.248;2023-01-30T08:09:05;92608.44;;;-3.13;79.88
53041;BME280;39326;42.650;23.248;2023-01-30T08:11:30;92616.50;;;-3.01;78.05
53041;BME280;39326;42.650;23.248;2023-01-30T08:13:56;92602.97;;;-3.25;78.62
53041;BME280;39326;42.650;23.248;2023-01-30T08:16:21;92613.84;;;-3.09;78.02
53041;BME280;39326;42.650;23.248;2023-01-30T08:18:47;92608.50;;;-3.04;77.72
53041;BME280;39326;42.650;23.248;2023-01-30T08:21:12;92606.97;;;-3.05;77.65
53041;BME280;39326;42.650;23.248;2023-01-30T08:23:37;92605.16;;;-3.19;77.92
53041;BME280;39326;42.650;23.248;2023-01-30T08:26:03;92599.13;;;-3.28;78.01
53041;BME280;39326;42.650;23.248;2023-01-30T08:28:29;92605.31;;;-3.24;78.62
53041;BME280;39326;42.650;23.248;2023-01-30T08:30:55;92598.59;;;-3.16;77.10
53041;BME280;39326;42.650;23.248;2023-01-30T08:33:21;92591.78;;;-3.26;77.44
53041;BME280;39326;42.650;23.248;2023-01-30T08:35:47;92594.88;;;-3.24;77.80
53041;BME280;39326;42.650;23.248;2023-01-30T08:38:13;92593.09;;;-3.14;78.83
53041;BME280;39326;42.650;23.248;2023-01-30T08:40:39;92586.16;;;-3.19;78.25
53041;BME280;39326;42.650;23.248;2023-01-30T08:43:05;92586.53;;;-3.12;78.29
53041;BME280;39326;42.650;23.248;2023-01-30T08:45:31;92595.88;;;-2.89;77.86
53041;BME280;39326;42.650;23.248;2023-01-30T08:47:58;92580.78;;;-2.69;77.38
53041;BME280;39326;42.650;23.248;2023-01-30T08:50:23;92586.81;;;-2.91;76.86
53041;BME280;39326;42.650;23.248;2023-01-30T08:52:49;92584.44;;;-2.79;76.72
53041;BME280;39326;42.650;23.248;2023-01-30T08:55:14;92579.25;;;-2.70;76.20
53041;BME280;39326;42.650;23.248;2023-01-30T08:57:39;92581.97;;;-2.75;76.22
53041;BME280;39326;42.650;23.248;2023-01-30T09:00:05;92586.06;;;-2.83;75.84
53041;BME280;39326;42.650;23.248;2023-01-30T09:02:31;92572.50;;;-2.71;75.83
53041;BME280;39326;42.650;23.248;2023-01-30T09:04:57;92567.91;;;-2.66;76.45
53041;BME280;39326;42.650;23.248;2023-01-30T09:07:22;92559.78;;;-2.64;75.33
53041;BME280;39326;42.650;23.248;2023-01-30T09:09:47;92558.34;;;-2.39;75.19
53041;BME280;39326;42.650;23.248;2023-01-30T09:12:13;92559.72;;;-2.42;74.82
53041;BME280;39326;42.650;23.248;2023-01-30T09:14:39;92561.19;;;-2.58;74.90
53041;BME280;39326;42.650;23.248;2023-01-30T09:17:04;92559.19;;;-2.61;75.64
53041;BME280;39326;42.650;23.248;2023-01-30T09:19:30;92568.44;;;-2.55;75.47
53041;BME280;39326;42.650;23.248;2023-01-30T09:21:55;92567.91;;;-2.97;75.54
53041;BME280;39326;42.650;23.248;2023-01-30T09:24:22;92561.72;;;-2.78;75.62
53041;BME280;39326;42.650;23.248;2023-01-30T09:26:54;92556.44;;;-2.87;76.20
53041;BME280;39326;42.650;23.248;2023-01-30T09:29:22;92564.97;;;-2.73;76.50
53041;BME280;39326;42.650;23.248;2023-01-30T09:31:47;92555.13;;;-2.76;75.69
53041;BME280;39326;42.650;23.248;2023-01-30T09:34:13;92556.22;;;-2.68;76.00
53041;BME280;39326;42.650;23.248;2023-01-30T09:36:38;92552.84;;;-2.69;75.43
53041;BME280;39326;42.650;23.248;2023-01-30T09:39:05;92556.06;;;-2.72;75.91
53041;BME280;39326;42.650;23.248;2023-01-30T09:47:10;92545.06;;;-2.60;76.05
53041;BME280;39326;42.650;23.248;2023-01-30T09:54:44;92528.22;;;-2.54;74.61
53041;BME280;39326;42.650;23.248;2023-01-30T10:00:03;92527.00;;;-2.48;74.16
53041;BME280;39326;42.650;23.248;2023-01-30T10:02:58;92518.88;;;-2.38;74.11
53041;BME280;39326;42.650;23.248;2023-01-30T10:05:30;92515.63;;;-2.52;74.13
53041;BME280;39326;42.650;23.248;2023-01-30T10:10:45;92519.75;;;-2.11;73.86
53041;BME280;39326;42.650;23.248;2023-01-30T10:13:27;92507.41;;;-2.19;73.73
53041;BME280;39326;42.650;23.248;2023-01-30T10:21:58;92490.03;;;-2.32;74.10
53041;BME280;39326;42.650;23.248;2023-01-30T10:26:57;92479.00;;;-2.29;74.23
53041;BME280;39326;42.650;23.248;2023-01-30T10:29:24;92480.38;;;-2.06;73.85
53041;BME280;39326;42.650;23.248;2023-01-30T10:32:19;92476.84;;;-2.27;72.92
53041;BME280;39326;42.650;23.248;2023-01-30T10:34:53;92475.75;;;-2.26;74.17
53041;BME280;39326;42.650;23.248;2023-01-30T10:37:55;92460.13;;;-2.09;72.94
53041;BME280;39326;42.650;23.248;2023-01-30T10:40:36;92449.63;;;-2.35;75.20
53041;BME280;39326;42.650;23.248;2023-01-30T10:43:25;92445.63;;;-2.32;75.78
53041;BME280;39326;42.650;23.248;2023-01-30T10:53:45;92429.22;;;-2.24;76.84
53041;BME280;39326;42.650;23.248;2023-01-30T10:56:19;92417.84;;;-2.28;76.95
53041;BME280;39326;42.650;23.248;2023-01-30T10:58:55;92412.47;;;-2.15;76.90
53041;BME280;39326;42.650;23.248;2023-01-30T11:01:46;92400.50;;;-1.90;76.04
53041;BME280;39326;42.650;23.248;2023-01-30T11:04:41;92395.28;;;-1.90;74.85
53041;BME280;39326;42.650;23.248;2023-01-30T11:07:08;92389.91;;;-2.02;74.19
53041;BME280;39326;42.650;23.248;2023-01-30T11:09:43;92394.81;;;-2.00;72.78
53041;BME280;39326;42.650;23.248;2023-01-30T11:12:09;92391.59;;;-1.97;72.94
53041;BME280;39326;42.650;23.248;2023-01-30T11:14:58;92387.13;;;-2.23;71.84
53041;BME280;39326;42.650;23.248;2023-01-30T11:17:33;92368.97;;;-1.93;72.74
53041;BME280;39326;42.650;23.248;2023-01-30T11:20:20;92372.50;;;-1.72;71.81
53041;BME280;39326;42.650;23.248;2023-01-30T11:25:21;92354.34;;;-1.68;70.98
53041;BME280;39326;42.650;23.248;2023-01-30T11:28:00;92345.19;;;-1.92;70.24
53041;BME280;39326;42.650;23.248;2023-01-30T11:30:33;92347.03;;;-1.92;69.75
53041;BME280;39326;42.650;23.248;2023-01-30T11:33:13;92334.84;;;-1.88;69.38
53041;BME280;39326;42.650;23.248;2023-01-30T11:38:26;92341.31;;;-1.86;69.48
53041;BME280;39326;42.650;23.248;2023-01-30T11:43:32;92322.72;;;-1.84;70.13
53041;BME280;39326;42.650;23.248;2023-01-30T11:45:58;92314.81;;;-1.58;70.23
53041;BME280;39326;42.650;23.248;2023-01-30T11:48:29;92311.81;;;-1.39;70.15
53041;BME280;39326;42.650;23.248;2023-01-30T11:51:04;92301.84;;;-1.46;68.65
53041;BME280;39326;42.650;23.248;2023-01-30T11:58:34;92292.25;;;-1.71;69.40
53041;BME280;39326;42.650;23.248;2023-01-30T12:01:01;92297.47;;;-1.71;69.38
53041;BME280;39326;42.650;23.248;2023-01-30T12:03:27;92288.88;;;-1.81;69.76
53041;BME280;39326;42.650;23.248;2023-01-30T12:05:54;92279.09;;;-1.92;70.01
53041;BME280;39326;42.650;23.248;2023-01-30T12:08:31;92279.56;;;-1.99;70.44
53041;BME280;39326;42.650;23.248;2023-01-30T12:10:58;92277.75;;;-2.16;71.59
53041;BME280;39326;42.650;23.248;2023-01-30T12:13:30;92260.69;;;-2.13;70.82
53041;BME280;39326;42.650;23.248;2023-01-30T12:16:20;92264.41;;;-2.23;70.80
53041;BME280;39326;42.650;23.248;2023-01-30T12:18:54;92256.81;;;-2.07;70.91
53041;BME280;39326;42.650;23.248;2023-01-30T12:26:44;92249.72;;;-1.89;71.23
53041;BME280;39326;42.650;23.248;2023-01-30T12:29:29;92239.25;;;-1.89;70.35
53041;BME280;39326;42.650;23.248;2023-01-30T12:32:15;92237.00;;;-2.08;70.19
53041;BME280;39326;42.650;23.248;2023-01-30T12:34:42;92242.13;;;-2.20;70.43
53041;BME280;39326;42.650;23.248;2023-01-30T12:37:42;92239.81;;;-2.22;70.27
53041;BME280;39326;42.650;23.248;2023-01-30T12:43:48;92234.84;;;-2.06;68.57
53041;BME280;39326;42.650;23.248;2023-01-30T12:46:54;92227.13;;;-1.85;68.13
53041;BME280;39326;42.650;23.248;2023-01-30T12:49:38;92228.97;;;-1.94;67.85
53041;BME280;39326;42.650;23.248;2023-01-30T13:05:59;92210.28;;;-1.37;66.56
53041;BME280;39326;42.650;23.248;2023-01-30T13:22:24;92217.00;;;-1.28;66.95
53041;BME280;39326;42.650;23.248;2023-01-30T13:25:05;92212.19;;;-1.46;66.63
53041;BME280;39326;42.650;23.248;2023-01-30T13:27:39;92202.84;;;-1.56;66.45
53041;BME280;39326;42.650;23.248;2023-01-30T13:30:15;92211.44;;;-1.56;67.02
53041;BME280;39326;42.650;23.248;2023-01-30T13:32:47;92198.09;;;-1.54;66.61
53041;BME280;39326;42.650;23.248;2023-01-30T13:37:53;92187.16;;;-1.56;66.53
53041;BME280;39326;42.650;23.248;2023-01-30T13:40:48;92182.59;;;-1.68;66.33
53041;BME280;39326;42.650;23.248;2023-01-30T13:43:29;92183.34;;;-1.59;66.33
53041;BME280;39326;42.650;23.248;2023-01-30T13:46:00;92166.13;;;-1.60;65.48
53041;BME280;39326;42.650;23.248;2023-01-30T13:51:20;92170.34;;;-1.46;67.43
53041;BME280;39326;42.650;23.248;2023-01-30T14:09:33;92167.16;;;-1.52;66.72
53041;BME280;39326;42.650;23.248;2023-01-30T14:12:00;92167.81;;;-1.64;66.11
53041;BME280;39326;42.650;23.248;2023-01-30T14:14:30;92166.38;;;-1.82;67.06
53041;BME280;39326;42.650;23.248;2023-01-30T14:17:17;92165.63;;;-1.83;67.22
53041;BME280;39326;42.650;23.248;2023-01-30T14:19:47;92183.03;;;-1.95;67.72
53041;BME280;39326;42.650;23.248;2023-01-30T14:22:29;92177.75;;;-1.87;67.60
53041;BME280;39326;42.650;23.248;2023-01-30T14:38:15;92169.03;;;-1.91;68.18
53041;BME280;39326;42.650;23.248;2023-01-30T14:41:14;92173.03;;;-1.93;68.63
53041;BME280;39326;42.650;23.248;2023-01-30T14:51:44;92145.53;;;-2.38;68.69
53041;BME280;39326;42.650;23.248;2023-01-30T14:56:50;92136.88;;;-2.68;68.92
53041;BME280;39326;42.650;23.248;2023-01-30T15:02:30;92112.31;;;-2.75;68.55
53041;BME280;39326;42.650;23.248;2023-01-30T15:07:22;92122.47;;;-2.82;69.85
53041;BME280;39326;42.650;23.248;2023-01-30T15:09:59;92112.66;;;-2.85;70.30
53041;BME280;39326;42.650;23.248;2023-01-30T15:23:50;92125.69;;;-2.77;70.63
53041;BME280;39326;42.650;23.248;2023-01-30T15:31:18;92129.81;;;-2.76;71.06
53041;BME280;39326;42.650;23.248;2023-01-30T15:33:52;92136.00;;;-2.80;70.61
53041;BME280;39326;42.650;23.248;2023-01-30T15:36:23;92143.81;;;-2.89;71.30
53041;BME280;39326;42.650;23.248;2023-01-30T15:41:27;92149.50;;;-3.04;72.24
53041;BME280;39326;42.650;23.248;2023-01-30T15:52:02;92131.56;;;-3.23;73.57
53041;BME280;39326;42.650;23.248;2023-01-30T15:54:28;92127.59;;;-3.29;73.51
53041;BME280;39326;42.650;23.248;2023-01-30T15:56:56;92112.88;;;-3.34;74.23
53041;BME280;39326;42.650;23.248;2023-01-30T16:04:38;92127.09;;;-3.31;76.03
53041;BME280;39326;42.650;23.248;2023-01-30T16:07:22;92128.97;;;-3.23;75.48
53041;BME280;39326;42.650;23.248;2023-01-30T16:09:56;92125.28;;;-3.48;76.10
53041;BME280;39326;42.650;23.248;2023-01-30T16:12:26;92122.06;;;-3.54;77.04
53041;BME280;39326;42.650;23.248;2023-01-30T16:14:52;92120.84;;;-3.48;75.77
53041;BME280;39326;42.650;23.248;2023-01-30T16:17:27;92112.09;;;-3.43;74.80